sensor_id;sensor_type;location;lat;lon;timestamp;pressure;altitude;pressure_sealevel;temperature
13304;BMP280;6720;51.958;4.540;2023-12-29T00:01:17;100485.41;;;12.88
13304;BMP280;6720;51.958;4.540;2023-12-29T00:03:43;100478.09;;;12.99
13304;BMP280;6720;51.958;4.540;2023-12-29T00:06:08;100466.59;;;12.74
13304;BMP280;6720;51.958;4.540;2023-12-29T00:08:34;100457.94;;;12.72
13304;BMP280;6720;51.958;4.540;2023-12-29T00:10:59;100467.28;;;12.80
13304;BMP280;6720;51.958;4.540;2023-12-29T00:13:24;100475.56;;;12.94
13304;BMP280;6720;51.958;4.540;2023-12-29T00:15:55;100463.47;;;12.89
13304;BMP280;6720;51.958;4.540;2023-12-29T00:18:20;100473.00;;;12.93
13304;BMP280;6720;51.958;4.540;2023-12-29T00:20:46;100473.13;;;12.90
13304;BMP280;6720;51.958;4.540;2023-12-29T00:23:11;100466.97;;;12.89
13304;BMP280;6720;51.958;4.540;2023-12-29T00:25:37;100457.22;;;13.20
13304;BMP280;6720;51.958;4.540;2023-12-29T00:28:04;100444.25;;;12.88
13304;BMP280;6720;51.958;4.540;2023-12-29T00:30:29;100455.03;;;13.07
13304;BMP280;6720;51.958;4.540;2023-12-29T00:32:55;100458.69;;;13.03
13304;BMP280;6720;51.958;4.540;2023-12-29T00:35:20;100454.06;;;13.09
13304;BMP280;6720;51.958;4.540;2023-12-29T00:37:46;100444.16;;;13.17
13304;BMP280;6720;51.958;4.540;2023-12-29T00:40:11;100466.19;;;13.13
13304;BMP280;6720;51.958;4.540;2023-12-29T00:42:37;100457.94;;;12.72
13304;BMP280;6720;51.958;4.540;2023-12-29T00:45:03;100457.81;;;13.02
13304;BMP280;6720;51.958;4.540;2023-12-29T00:47:29;100460.25;;;13.08
13304;BMP280;6720;51.958;4.540;2023-12-29T00:49:54;100447.53;;;12.95
13304;BMP280;6720;51.958;4.540;2023-12-29T00:52:20;100456.00;;;12.77
13304;BMP280;6720;51.958;4.540;2023-12-29T00:54:45;100458.97;;;12.94
13304;BMP280;6720;51.958;4.540;2023-12-29T00:57:10;100458.31;;;13.13
13304;BMP280;6720;51.958;4.540;2023-12-29T00:59:39;100448.94;;;13.06
13304;BMP280;6720;51.958;4.540;2023-12-29T01:02:05;100433.66;;;12.91
13304;BMP280;6720;51.958;4.540;2023-12-29T01:04:33;100451.88;;;12.96
13304;BMP280;6720;51.958;4.540;2023-12-29T01:06:59;100444.44;;;12.82
13304;BMP280;6720;51.958;4.540;2023-12-29T01:09:26;100432.97;;;13.12
13304;BMP280;6720;51.958;4.540;2023-12-29T01:11:51;100433.66;;;12.91
13304;BMP280;6720;51.958;4.540;2023-12-29T01:14:17;100426.00;;;12.84
13304;BMP280;6720;51.958;4.540;2023-12-29T01:16:42;100437.75;;;12.72
13304;BMP280;6720;51.958;4.540;2023-12-29T01:19:08;100442.88;;;12.77
13304;BMP280;6720;51.958;4.540;2023-12-29T01:21:37;100425.03;;;12.60
13304;BMP280;6720;51.958;4.540;2023-12-29T01:24:03;100429.75;;;12.77
13304;BMP280;6720;51.958;4.540;2023-12-29T01:26:37;100447.78;;;12.87
13304;BMP280;6720;51.958;4.540;2023-12-29T01:29:03;100448.78;;;12.83
13304;BMP280;6720;51.958;4.540;2023-12-29T01:31:29;100469.03;;;12.80
13304;BMP280;6720;51.958;4.540;2023-12-29T01:33:58;100445.13;;;12.87
13304;BMP280;6720;51.958;4.540;2023-12-29T01:36:24;100452.75;;;12.96
13304;BMP280;6720;51.958;4.540;2023-12-29T01:38:49;100467.69;;;12.94
13304;BMP280;6720;51.958;4.540;2023-12-29T01:41:15;100438.78;;;12.94
13304;BMP280;6720;51.958;4.540;2023-12-29T01:46:25;100430.59;;;12.77
13304;BMP280;6720;51.958;4.540;2023-12-29T01:48:52;100454.81;;;12.59
13304;BMP280;6720;51.958;4.540;2023-12-29T01:51:20;100437.47;;;12.81
13304;BMP280;6720;51.958;4.540;2023-12-29T01:53:46;100453.72;;;12.66
13304;BMP280;6720;51.958;4.540;2023-12-29T01:56:13;100458.69;;;12.75
13304;BMP280;6720;51.958;4.540;2023-12-29T01:58:39;100460.97;;;12.86
13304;BMP280;6720;51.958;4.540;2023-12-29T02:01:06;100465.06;;;12.94
13304;BMP280;6720;51.958;4.540;2023-12-29T02:03:33;100463.59;;;12.86
13304;BMP280;6720;51.958;4.540;2023-12-29T02:05:59;100469.63;;;12.89
13304;BMP280;6720;51.958;4.540;2023-12-29T02:08:24;100485.03;;;12.72
13304;BMP280;6720;51.958;4.540;2023-12-29T02:10:50;100482.88;;;12.85
13304;BMP280;6720;51.958;4.540;2023-12-29T02:13:16;100482.25;;;12.49
13304;BMP280;6720;51.958;4.540;2023-12-29T02:15:42;100493.47;;;12.56
13304;BMP280;6720;51.958;4.540;2023-12-29T02:18:11;100492.09;;;12.43
13304;BMP280;6720;51.958;4.540;2023-12-29T02:20:41;100480.47;;;12.51
13304;BMP280;6720;51.958;4.540;2023-12-29T02:23:06;100481.47;;;12.47
13304;BMP280;6720;51.958;4.540;2023-12-29T02:25:31;100495.78;;;12.36
13304;BMP280;6720;51.958;4.540;2023-12-29T02:27:59;100487.34;;;12.55
13304;BMP280;6720;51.958;4.540;2023-12-29T02:30:46;100477.09;;;12.74
13304;BMP280;6720;51.958;4.540;2023-12-29T02:33:19;100496.50;;;12.42
13304;BMP280;6720;51.958;4.540;2023-12-29T02:35:45;100505.78;;;12.81
13304;BMP280;6720;51.958;4.540;2023-12-29T02:38:12;100482.34;;;12.74
13304;BMP280;6720;51.958;4.540;2023-12-29T02:40:38;100496.38;;;12.74
13304;BMP280;6720;51.958;4.540;2023-12-29T02:43:04;100477.22;;;12.71
13304;BMP280;6720;51.958;4.540;2023-12-29T02:45:29;100483.97;;;12.78
13304;BMP280;6720;51.958;4.540;2023-12-29T02:47:55;100480.88;;;12.93
13304;BMP280;6720;51.958;4.540;2023-12-29T02:50:20;100482.38;;;12.46
13304;BMP280;6720;51.958;4.540;2023-12-29T02:52:46;100472.50;;;12.54
13304;BMP280;6720;51.958;4.540;2023-12-29T02:55:11;100491.72;;;12.82
13304;BMP280;6720;51.958;4.540;2023-12-29T02:57:37;100491.31;;;12.94
13304;BMP280;6720;51.958;4.540;2023-12-29T03:00:04;100493.72;;;12.74
13304;BMP280;6720;51.958;4.540;2023-12-29T03:02:30;100474.03;;;12.87
13304;BMP280;6720;51.958;4.540;2023-12-29T03:04:55;100478.09;;;12.97
13304;BMP280;6720;51.958;4.540;2023-12-29T03:07:21;100472.06;;;12.95
13304;BMP280;6720;51.958;4.540;2023-12-29T03:09:46;100472.50;;;12.82
13304;BMP280;6720;51.958;4.540;2023-12-29T03:12:11;100468.31;;;13.02
13304;BMP280;6720;51.958;4.540;2023-12-29T03:14:37;100461.16;;;13.07
13304;BMP280;6720;51.958;4.540;2023-12-29T03:17:02;100455.34;;;12.98
13304;BMP280;6720;51.958;4.540;2023-12-29T03:19:27;100438.75;;;13.22
13304;BMP280;6720;51.958;4.540;2023-12-29T03:21:53;100459.16;;;13.15
13304;BMP280;6720;51.958;4.540;2023-12-29T03:24:19;100433.91;;;13.10
13304;BMP280;6720;51.958;4.540;2023-12-29T03:26:44;100432.25;;;13.33
13304;BMP280;6720;51.958;4.540;2023-12-29T03:29:11;100435.22;;;13.23
13304;BMP280;6720;51.958;4.540;2023-12-29T03:31:36;100462.47;;;12.93
13304;BMP280;6720;51.958;4.540;2023-12-29T03:34:02;100456.19;;;12.98
13304;BMP280;6720;51.958;4.540;2023-12-29T03:36:27;100455.50;;;13.19
13304;BMP280;6720;51.958;4.540;2023-12-29T03:38:52;100453.47;;;13.27
13304;BMP280;6720;51.958;4.540;2023-12-29T03:41:18;100456.69;;;13.35
13304;BMP280;6720;51.958;4.540;2023-12-29T03:43:44;100463.81;;;13.07
13304;BMP280;6720;51.958;4.540;2023-12-29T03:46:19;100462.09;;;13.06
13304;BMP280;6720;51.958;4.540;2023-12-29T03:48:46;100463.34;;;13.45
13304;BMP280;6720;51.958;4.540;2023-12-29T03:51:11;100441.25;;;13.26
13304;BMP280;6720;51.958;4.540;2023-12-29T03:53:37;100444.56;;;13.31
13304;BMP280;6720;51.958;4.540;2023-12-29T03:56:12;100438.72;;;13.48
13304;BMP280;6720;51.958;4.540;2023-12-29T03:58:38;100435.03;;;13.53
13304;BMP280;6720;51.958;4.540;2023-12-29T04:01:03;100453.91;;;13.40
13304;BMP280;6720;51.958;4.540;2023-12-29T04:03:29;100449.38;;;13.43
13304;BMP280;6720;51.958;4.540;2023-12-29T04:05:54;100444.97;;;13.45
13304;BMP280;6720;51.958;4.540;2023-12-29T04:08:20;100437.59;;;13.30
13304;BMP280;6720;51.958;4.540;2023-12-29T04:10:45;100441.63;;;13.40
13304;BMP280;6720;51.958;4.540;2023-12-29T04:13:10;100454.88;;;13.37
13304;BMP280;6720;51.958;4.540;2023-12-29T04:15:36;100454.88;;;13.62
13304;BMP280;6720;51.958;4.540;2023-12-29T04:18:01;100464.09;;;13.49
13304;BMP280;6720;51.958;4.540;2023-12-29T04:20:27;100457.50;;;13.37
13304;BMP280;6720;51.958;4.540;2023-12-29T04:22:52;100465.16;;;13.43
13304;BMP280;6720;51.958;4.540;2023-12-29T04:25:18;100481.28;;;13.34
13304;BMP280;6720;51.958;4.540;2023-12-29T04:27:43;100461.22;;;13.56
13304;BMP280;6720;51.958;4.540;2023-12-29T04:30:09;100466.91;;;13.69
13304;BMP280;6720;51.958;4.540;2023-12-29T04:32:35;100453.47;;;13.52
13304;BMP280;6720;51.958;4.540;2023-12-29T04:35:00;100456.88;;;13.55
13304;BMP280;6720;51.958;4.540;2023-12-29T04:37:25;100442.53;;;13.39
13304;BMP280;6720;51.958;4.540;2023-12-29T04:39:51;100447.03;;;13.36
13304;BMP280;6720;51.958;4.540;2023-12-29T04:42:16;100452.25;;;13.37
13304;BMP280;6720;51.958;4.540;2023-12-29T04:44:43;100452.44;;;13.31
13304;BMP280;6720;51.958;4.540;2023-12-29T04:47:08;100461.84;;;13.38
13304;BMP280;6720;51.958;4.540;2023-12-29T04:49:34;100436.19;;;13.69
13304;BMP280;6720;51.958;4.540;2023-12-29T04:51:59;100438.88;;;13.43
13304;BMP280;6720;51.958;4.540;2023-12-29T04:54:25;100436.19;;;13.45
13304;BMP280;6720;51.958;4.540;2023-12-29T04:56:50;100437.38;;;13.36
13304;BMP280;6720;51.958;4.540;2023-12-29T04:59:16;100438.25;;;13.37
13304;BMP280;6720;51.958;4.540;2023-12-29T05:01:41;100429.38;;;13.39
13304;BMP280;6720;51.958;4.540;2023-12-29T05:04:06;100441.78;;;13.36
13304;BMP280;6720;51.958;4.540;2023-12-29T05:06:32;100445.44;;;13.56
13304;BMP280;6720;51.958;4.540;2023-12-29T05:08:57;100449.72;;;13.34
13304;BMP280;6720;51.958;4.540;2023-12-29T05:11:23;100455.78;;;13.36
13304;BMP280;6720;51.958;4.540;2023-12-29T05:13:48;100430.88;;;13.46
13304;BMP280;6720;51.958;4.540;2023-12-29T05:16:13;100445.97;;;13.41
13304;BMP280;6720;51.958;4.540;2023-12-29T05:18:39;100445.97;;;13.66
13304;BMP280;6720;51.958;4.540;2023-12-29T05:21:05;100440.47;;;13.47
13304;BMP280;6720;51.958;4.540;2023-12-29T05:23:30;100441.34;;;13.48
13304;BMP280;6720;51.958;4.540;2023-12-29T05:25:56;100428.53;;;13.39
13304;BMP280;6720;51.958;4.540;2023-12-29T05:28:21;100425.69;;;13.45
13304;BMP280;6720;51.958;4.540;2023-12-29T05:30:47;100426.00;;;13.36
13304;BMP280;6720;51.958;4.540;2023-12-29T05:33:12;100435.47;;;13.41
13304;BMP280;6720;51.958;4.540;2023-12-29T05:35:37;100433.94;;;13.34
13304;BMP280;6720;51.958;4.540;2023-12-29T05:38:03;100445.41;;;13.07
13304;BMP280;6720;51.958;4.540;2023-12-29T05:40:28;100443.81;;;13.28
13304;BMP280;6720;51.958;4.540;2023-12-29T05:42:54;100419.06;;;13.09
13304;BMP280;6720;51.958;4.540;2023-12-29T05:45:20;100418.88;;;13.39
13304;BMP280;6720;51.958;4.540;2023-12-29T05:47:45;100425.72;;;13.43
13304;BMP280;6720;51.958;4.540;2023-12-29T05:50:11;100417.63;;;13.49
13304;BMP280;6720;51.958;4.540;2023-12-29T05:52:36;100418.66;;;13.45
13304;BMP280;6720;51.958;4.540;2023-12-29T05:55:02;100423.63;;;13.28
13304;BMP280;6720;51.958;4.540;2023-12-29T05:57:28;100413.00;;;13.31
13304;BMP280;6720;51.958;4.540;2023-12-29T05:59:53;100403.25;;;13.10
13304;BMP280;6720;51.958;4.540;2023-12-29T06:02:19;100430.50;;;13.32
13304;BMP280;6720;51.958;4.540;2023-12-29T06:04:44;100412.75;;;13.39
13304;BMP280;6720;51.958;4.540;2023-12-29T06:07:10;100417.09;;;13.15
13304;BMP280;6720;51.958;4.540;2023-12-29T06:09:36;100417.09;;;13.40
13304;BMP280;6720;51.958;4.540;2023-12-29T06:12:01;100414.41;;;13.41
13304;BMP280;6720;51.958;4.540;2023-12-29T06:14:27;100406.56;;;13.64
13304;BMP280;6720;51.958;4.540;2023-12-29T06:16:52;100410.22;;;13.60
13304;BMP280;6720;51.958;4.540;2023-12-29T06:19:18;100405.81;;;13.61
13304;BMP280;6720;51.958;4.540;2023-12-29T06:21:43;100417.34;;;13.57
13304;BMP280;6720;51.958;4.540;2023-12-29T06:24:12;100425.25;;;13.32
13304;BMP280;6720;51.958;4.540;2023-12-29T06:26:37;100414.09;;;13.50
13304;BMP280;6720;51.958;4.540;2023-12-29T06:29:08;100407.16;;;13.48
13304;BMP280;6720;51.958;4.540;2023-12-29T06:31:34;100410.97;;;13.15
13304;BMP280;6720;51.958;4.540;2023-12-29T06:33:59;100410.97;;;13.39
13304;BMP280;6720;51.958;4.540;2023-12-29T06:36:25;100406.16;;;13.52
13304;BMP280;6720;51.958;4.540;2023-12-29T06:38:51;100411.31;;;13.30
13304;BMP280;6720;51.958;4.540;2023-12-29T06:41:18;100411.84;;;13.15
13304;BMP280;6720;51.958;4.540;2023-12-29T06:43:44;100419.97;;;13.32
13304;BMP280;6720;51.958;4.540;2023-12-29T06:46:09;100411.59;;;13.21
13304;BMP280;6720;51.958;4.540;2023-12-29T06:48:36;100422.63;;;13.32
13304;BMP280;6720;51.958;4.540;2023-12-29T06:51:01;100422.06;;;13.23
13304;BMP280;6720;51.958;4.540;2023-12-29T06:53:27;100409.91;;;13.20
13304;BMP280;6720;51.958;4.540;2023-12-29T06:55:52;100414.81;;;13.31
13304;BMP280;6720;51.958;4.540;2023-12-29T06:58:17;100407.81;;;13.30
13304;BMP280;6720;51.958;4.540;2023-12-29T07:00:43;100417.09;;;13.15
13304;BMP280;6720;51.958;4.540;2023-12-29T07:03:08;100413.44;;;13.19
13304;BMP280;6720;51.958;4.540;2023-12-29T07:05:34;100415.94;;;12.98
13304;BMP280;6720;51.958;4.540;2023-12-29T07:07:59;100421.47;;;13.15
13304;BMP280;6720;51.958;4.540;2023-12-29T07:10:25;100424.16;;;13.13
13304;BMP280;6720;51.958;4.540;2023-12-29T07:12:50;100432.00;;;12.87
13304;BMP280;6720;51.958;4.540;2023-12-29T07:15:16;100435.09;;;13.01
13304;BMP280;6720;51.958;4.540;2023-12-29T07:17:41;100423.34;;;13.37
13304;BMP280;6720;51.958;4.540;2023-12-29T07:20:07;100405.91;;;13.35
13304;BMP280;6720;51.958;4.540;2023-12-29T07:22:33;100405.06;;;13.33
13304;BMP280;6720;51.958;4.540;2023-12-29T07:24:58;100412.56;;;13.19
13304;BMP280;6720;51.958;4.540;2023-12-29T07:27:24;100399.09;;;13.29
13304;BMP280;6720;51.958;4.540;2023-12-29T07:29:49;100400.34;;;13.42
13304;BMP280;6720;51.958;4.540;2023-12-29T07:32:15;100402.34;;;13.11
13304;BMP280;6720;51.958;4.540;2023-12-29T07:34:40;100407.16;;;13.23
13304;BMP280;6720;51.958;4.540;2023-12-29T07:37:06;100407.56;;;13.37
13304;BMP280;6720;51.958;4.540;2023-12-29T07:39:31;100409.59;;;13.29
13304;BMP280;6720;51.958;4.540;2023-12-29T07:41:57;100404.97;;;13.36
13304;BMP280;6720;51.958;4.540;2023-12-29T07:44:22;100407.47;;;13.40
13304;BMP280;6720;51.958;4.540;2023-12-29T07:46:48;100411.69;;;13.44
13304;BMP280;6720;51.958;4.540;2023-12-29T07:49:14;100405.34;;;13.01
13304;BMP280;6720;51.958;4.540;2023-12-29T07:51:40;100410.00;;;13.17
13304;BMP280;6720;51.958;4.540;2023-12-29T07:54:06;100407.22;;;13.22
13304;BMP280;6720;51.958;4.540;2023-12-29T07:56:32;100415.06;;;13.23
13304;BMP280;6720;51.958;4.540;2023-12-29T07:58:57;100424.31;;;13.35
13304;BMP280;6720;51.958;4.540;2023-12-29T08:01:23;100407.59;;;13.11
13304;BMP280;6720;51.958;4.540;2023-12-29T08:03:48;100407.16;;;12.97
13304;BMP280;6720;51.958;4.540;2023-12-29T08:06:14;100425.56;;;13.23
13304;BMP280;6720;51.958;4.540;2023-12-29T08:08:39;100418.59;;;13.47
13304;BMP280;6720;51.958;4.540;2023-12-29T08:11:05;100424.59;;;13.26
13304;BMP280;6720;51.958;4.540;2023-12-29T08:13:31;100428.34;;;13.19
13304;BMP280;6720;51.958;4.540;2023-12-29T08:15:56;100415.50;;;13.36
13304;BMP280;6720;51.958;4.540;2023-12-29T08:18:22;100414.38;;;13.18
13304;BMP280;6720;51.958;4.540;2023-12-29T08:20:47;100424.47;;;13.04
13304;BMP280;6720;51.958;4.540;2023-12-29T08:23:13;100450.84;;;13.27
13304;BMP280;6720;51.958;4.540;2023-12-29T08:25:38;100447.00;;;13.37
13304;BMP280;6720;51.958;4.540;2023-12-29T08:28:04;100427.28;;;13.24
13304;BMP280;6720;51.958;4.540;2023-12-29T08:30:30;100447.59;;;13.45
13304;BMP280;6720;51.958;4.540;2023-12-29T08:32:56;100440.88;;;13.61
13304;BMP280;6720;51.958;4.540;2023-12-29T08:35:21;100448.75;;;13.61
13304;BMP280;6720;51.958;4.540;2023-12-29T08:37:47;100437.69;;;13.52
13304;BMP280;6720;51.958;4.540;2023-12-29T08:40:12;100441.44;;;13.45
13304;BMP280;6720;51.958;4.540;2023-12-29T08:42:38;100461.94;;;13.35
13304;BMP280;6720;51.958;4.540;2023-12-29T08:45:04;100442.22;;;13.48
13304;BMP280;6720;51.958;4.540;2023-12-29T08:47:30;100436.28;;;13.42
13304;BMP280;6720;51.958;4.540;2023-12-29T08:49:55;100455.91;;;13.58
13304;BMP280;6720;51.958;4.540;2023-12-29T08:52:20;100445.69;;;13.24
13304;BMP280;6720;51.958;4.540;2023-12-29T08:54:46;100443.50;;;13.37
13304;BMP280;6720;51.958;4.540;2023-12-29T08:57:11;100460.97;;;13.38
13304;BMP280;6720;51.958;4.540;2023-12-29T08:59:38;100444.38;;;13.37
13304;BMP280;6720;51.958;4.540;2023-12-29T09:02:04;100446.28;;;13.57
13304;BMP280;6720;51.958;4.540;2023-12-29T09:04:29;100467.06;;;13.64
13304;BMP280;6720;51.958;4.540;2023-12-29T09:06:56;100440.28;;;13.53
13304;BMP280;6720;51.958;4.540;2023-12-29T09:09:22;100458.09;;;13.45
13304;BMP280;6720;51.958;4.540;2023-12-29T09:11:48;100461.22;;;13.56
13304;BMP280;6720;51.958;4.540;2023-12-29T09:14:13;100451.44;;;13.60
13304;BMP280;6720;51.958;4.540;2023-12-29T09:16:39;100464.97;;;13.74
13304;BMP280;6720;51.958;4.540;2023-12-29T09:19:06;100467.66;;;13.72
13304;BMP280;6720;51.958;4.540;2023-12-29T09:21:31;100472.25;;;13.90
13304;BMP280;6720;51.958;4.540;2023-12-29T09:23:56;100472.47;;;13.60
13304;BMP280;6720;51.958;4.540;2023-12-29T09:26:23;100474.56;;;13.50
13304;BMP280;6720;51.958;4.540;2023-12-29T09:28:49;100471.16;;;13.73
13304;BMP280;6720;51.958;4.540;2023-12-29T09:31:14;100483.00;;;13.84
13304;BMP280;6720;51.958;4.540;2023-12-29T09:33:40;100469.03;;;13.82
13304;BMP280;6720;51.958;4.540;2023-12-29T09:36:05;100486.44;;;13.86
13304;BMP280;6720;51.958;4.540;2023-12-29T09:38:31;100496.72;;;13.92
13304;BMP280;6720;51.958;4.540;2023-12-29T09:41:04;100502.81;;;13.70
13304;BMP280;6720;51.958;4.540;2023-12-29T09:43:31;100506.00;;;13.79
13304;BMP280;6720;51.958;4.540;2023-12-29T09:45:58;100514.13;;;13.96
13304;BMP280;6720;51.958;4.540;2023-12-29T09:48:26;100499.75;;;13.82
13304;BMP280;6720;51.958;4.540;2023-12-29T09:50:52;100501.78;;;13.74
13304;BMP280;6720;51.958;4.540;2023-12-29T09:53:20;100495.81;;;13.70
13304;BMP280;6720;51.958;4.540;2023-12-29T09:55:48;100501.47;;;13.83
13304;BMP280;6720;51.958;4.540;2023-12-29T09:58:14;100498.47;;;13.93
13304;BMP280;6720;51.958;4.540;2023-12-29T10:00:42;100521.25;;;14.17
13304;BMP280;6720;51.958;4.540;2023-12-29T10:03:08;100517.69;;;13.95
13304;BMP280;6720;51.958;4.540;2023-12-29T10:05:34;100515.72;;;14.00
13304;BMP280;6720;51.958;4.540;2023-12-29T10:08:01;100534.31;;;14.20
13304;BMP280;6720;51.958;4.540;2023-12-29T10:10:30;100537.06;;;13.93
13304;BMP280;6720;51.958;4.540;2023-12-29T10:12:57;100520.25;;;14.21
13304;BMP280;6720;51.958;4.540;2023-12-29T10:15:36;100535.13;;;13.98
13304;BMP280;6720;51.958;4.540;2023-12-29T10:18:07;100538.41;;;14.04
13304;BMP280;6720;51.958;4.540;2023-12-29T10:20:45;100531.41;;;14.28
13304;BMP280;6720;51.958;4.540;2023-12-29T10:23:15;100549.00;;;14.27
13304;BMP280;6720;51.958;4.540;2023-12-29T10:25:42;100533.38;;;13.98
13304;BMP280;6720;51.958;4.540;2023-12-29T10:28:09;100537.88;;;14.19
13304;BMP280;6720;51.958;4.540;2023-12-29T10:30:37;100544.22;;;14.14
13304;BMP280;6720;51.958;4.540;2023-12-29T10:33:05;100538.94;;;14.14
13304;BMP280;6720;51.958;4.540;2023-12-29T10:35:31;100548.59;;;14.38
13304;BMP280;6720;51.958;4.540;2023-12-29T10:38:12;100546.91;;;14.12
13304;BMP280;6720;51.958;4.540;2023-12-29T10:40:38;100555.81;;;14.08
13304;BMP280;6720;51.958;4.540;2023-12-29T10:43:06;100541.41;;;14.18
13304;BMP280;6720;51.958;4.540;2023-12-29T10:45:34;100543.22;;;13.93
13304;BMP280;6720;51.958;4.540;2023-12-29T10:48:02;100552.47;;;14.03
13304;BMP280;6720;51.958;4.540;2023-12-29T10:50:28;100552.56;;;14.00
13304;BMP280;6720;51.958;4.540;2023-12-29T10:53:14;100558.94;;;13.95
13304;BMP280;6720;51.958;4.540;2023-12-29T10:55:39;100556.66;;;14.33
13304;BMP280;6720;51.958;4.540;2023-12-29T10:58:05;100543.56;;;14.32
13304;BMP280;6720;51.958;4.540;2023-12-29T11:00:31;100550.13;;;14.20
13304;BMP280;6720;51.958;4.540;2023-12-29T11:02:58;100540.75;;;14.36
13304;BMP280;6720;51.958;4.540;2023-12-29T11:05:27;100555.94;;;14.05
13304;BMP280;6720;51.958;4.540;2023-12-29T11:07:54;100550.63;;;14.31
13304;BMP280;6720;51.958;4.540;2023-12-29T11:10:21;100542.47;;;14.37
13304;BMP280;6720;51.958;4.540;2023-12-29T11:12:47;100566.75;;;14.45
13304;BMP280;6720;51.958;4.540;2023-12-29T11:15:14;100544.78;;;14.23
13304;BMP280;6720;51.958;4.540;2023-12-29T11:17:41;100555.59;;;14.39
13304;BMP280;6720;51.958;4.540;2023-12-29T11:20:14;100555.00;;;14.31
13304;BMP280;6720;51.958;4.540;2023-12-29T11:22:42;100545.09;;;14.37
13304;BMP280;6720;51.958;4.540;2023-12-29T11:25:08;100559.81;;;14.66
13304;BMP280;6720;51.958;4.540;2023-12-29T11:27:35;100553.47;;;14.48
13304;BMP280;6720;51.958;4.540;2023-12-29T11:30:02;100568.75;;;14.62
13304;BMP280;6720;51.958;4.540;2023-12-29T11:32:34;100547.53;;;14.43
13304;BMP280;6720;51.958;4.540;2023-12-29T11:35:26;100535.59;;;14.56
13304;BMP280;6720;51.958;4.540;2023-12-29T11:38:18;100546.13;;;14.33
13304;BMP280;6720;51.958;4.540;2023-12-29T11:40:57;100542.16;;;14.46
13304;BMP280;6720;51.958;4.540;2023-12-29T11:43:25;100557.53;;;14.57
13304;BMP280;6720;51.958;4.540;2023-12-29T11:45:51;100552.44;;;14.29
13304;BMP280;6720;51.958;4.540;2023-12-29T11:48:53;100543.19;;;14.42
13304;BMP280;6720;51.958;4.540;2023-12-29T11:51:41;100538.94;;;14.38
13304;BMP280;6720;51.958;4.540;2023-12-29T11:54:08;100530.97;;;14.40
13304;BMP280;6720;51.958;4.540;2023-12-29T11:56:35;100540.03;;;14.56
13304;BMP280;6720;51.958;4.540;2023-12-29T11:59:24;100540.06;;;14.54
13304;BMP280;6720;51.958;4.540;2023-12-29T12:01:54;100533.97;;;14.75
13304;BMP280;6720;51.958;4.540;2023-12-29T12:04:40;100526.88;;;14.77
13304;BMP280;6720;51.958;4.540;2023-12-29T12:07:08;100537.81;;;14.90
13304;BMP280;6720;51.958;4.540;2023-12-29T12:09:35;100515.84;;;14.68
13304;BMP280;6720;51.958;4.540;2023-12-29T12:12:02;100528.00;;;14.94
13304;BMP280;6720;51.958;4.540;2023-12-29T12:17:10;100522.84;;;14.91
13304;BMP280;6720;51.958;4.540;2023-12-29T12:19:36;100511.06;;;14.77
13304;BMP280;6720;51.958;4.540;2023-12-29T12:22:02;100512.44;;;14.88
13304;BMP280;6720;51.958;4.540;2023-12-29T12:24:28;100523.75;;;14.90
13304;BMP280;6720;51.958;4.540;2023-12-29T12:26:56;100520.25;;;14.67
13304;BMP280;6720;51.958;4.540;2023-12-29T12:29:22;100505.75;;;14.79
13304;BMP280;6720;51.958;4.540;2023-12-29T12:31:55;100502.50;;;14.94
13304;BMP280;6720;51.958;4.540;2023-12-29T12:34:20;100513.72;;;14.77
13304;BMP280;6720;51.958;4.540;2023-12-29T12:36:50;100508.25;;;14.82
13304;BMP280;6720;51.958;4.540;2023-12-29T12:39:16;100501.91;;;14.88
13304;BMP280;6720;51.958;4.540;2023-12-29T12:41:42;100499.94;;;14.93
13304;BMP280;6720;51.958;4.540;2023-12-29T12:44:14;100506.66;;;15.21
13304;BMP280;6720;51.958;4.540;2023-12-29T12:46:56;100500.47;;;15.01
13304;BMP280;6720;51.958;4.540;2023-12-29T12:49:22;100488.75;;;15.08
13304;BMP280;6720;51.958;4.540;2023-12-29T12:51:48;100481.94;;;15.24
13304;BMP280;6720;51.958;4.540;2023-12-29T12:54:17;100479.69;;;15.15
13304;BMP280;6720;51.958;4.540;2023-12-29T12:56:43;100479.25;;;15.04
13304;BMP280;6720;51.958;4.540;2023-12-29T12:59:09;100475.88;;;15.22
13304;BMP280;6720;51.958;4.540;2023-12-29T13:01:36;100495.25;;;14.77
13304;BMP280;6720;51.958;4.540;2023-12-29T13:04:04;100486.53;;;14.75
13304;BMP280;6720;51.958;4.540;2023-12-29T13:06:33;100492.19;;;15.10
13304;BMP280;6720;51.958;4.540;2023-12-29T13:09:03;100501.78;;;14.67
13304;BMP280;6720;51.958;4.540;2023-12-29T13:11:32;100503.59;;;14.67
13304;BMP280;6720;51.958;4.540;2023-12-29T13:13:57;100499.88;;;14.73
13304;BMP280;6720;51.958;4.540;2023-12-29T13:18:55;100505.19;;;14.71
13304;BMP280;6720;51.958;4.540;2023-12-29T13:21:20;100488.28;;;14.77
13304;BMP280;6720;51.958;4.540;2023-12-29T13:23:47;100497.09;;;14.75
13304;BMP280;6720;51.958;4.540;2023-12-29T13:26:13;100476.75;;;14.79
13304;BMP280;6720;51.958;4.540;2023-12-29T13:28:38;100480.78;;;15.09
13304;BMP280;6720;51.958;4.540;2023-12-29T13:31:04;100477.13;;;14.92
13304;BMP280;6720;51.958;4.540;2023-12-29T13:33:46;100480.56;;;14.72
13304;BMP280;6720;51.958;4.540;2023-12-29T13:36:21;100471.09;;;14.66
13304;BMP280;6720;51.958;4.540;2023-12-29T13:38:53;100475.66;;;14.63
13304;BMP280;6720;51.958;4.540;2023-12-29T13:41:22;100471.97;;;14.89
13304;BMP280;6720;51.958;4.540;2023-12-29T13:43:50;100463.38;;;14.62
13304;BMP280;6720;51.958;4.540;2023-12-29T13:46:17;100457.06;;;14.44
13304;BMP280;6720;51.958;4.540;2023-12-29T13:48:43;100459.97;;;14.82
13304;BMP280;6720;51.958;4.540;2023-12-29T13:51:10;100456.03;;;14.92
13304;BMP280;6720;51.958;4.540;2023-12-29T13:53:35;100459.16;;;14.79
13304;BMP280;6720;51.958;4.540;2023-12-29T13:56:10;100445.13;;;14.79
13304;BMP280;6720;51.958;4.540;2023-12-29T13:58:36;100471.53;;;14.56
13304;BMP280;6720;51.958;4.540;2023-12-29T14:01:04;100462.53;;;14.61
13304;BMP280;6720;51.958;4.540;2023-12-29T14:03:42;100448.56;;;14.13
13304;BMP280;6720;51.958;4.540;2023-12-29T14:06:12;100448.34;;;13.96
13304;BMP280;6720;51.958;4.540;2023-12-29T14:08:45;100463.09;;;14.00
13304;BMP280;6720;51.958;4.540;2023-12-29T14:11:11;100447.31;;;14.00
13304;BMP280;6720;51.958;4.540;2023-12-29T14:13:44;100443.78;;;14.01
13304;BMP280;6720;51.958;4.540;2023-12-29T14:16:13;100449.34;;;13.92